createdAt,value
2022-12-26T00:01:21.965Z,100697.38
2022-12-26T00:03:49.271Z,100712.66
2022-12-26T00:06:18.893Z,100700.31
2022-12-26T00:08:47.789Z,100708.75
2022-12-26T00:11:15.212Z,100712.31
2022-12-26T00:13:42.378Z,100716.22
2022-12-26T00:16:09.548Z,100720.13
2022-12-26T00:18:36.648Z,100724.13
2022-12-26T00:21:04.036Z,100733.38
2022-12-26T00:23:32.771Z,100739.69
2022-12-26T00:26:13.271Z,100731.66
2022-12-26T00:28:40.424Z,100741.94
2022-12-26T00:31:10.917Z,100746.28
2022-12-26T00:33:38.412Z,100742.78
2022-12-26T00:36:11.171Z,100756.25
2022-12-26T00:38:39.095Z,100766.56
2022-12-26T00:41:09.275Z,100744.03
2022-12-26T00:43:36.573Z,100743.47
2022-12-26T00:46:04.455Z,100742.63
2022-12-26T00:48:31.703Z,100743.28
2022-12-26T00:50:58.496Z,100756.59
2022-12-26T00:53:26.358Z,100753.78
2022-12-26T00:55:53.798Z,100758.66
2022-12-26T00:58:21.476Z,100765.22
2022-12-26T01:00:49.095Z,100774.16
2022-12-26T01:03:16.831Z,100776.47
2022-12-26T01:05:47.907Z,100781.03
2022-12-26T01:08:19.915Z,100769.13
2022-12-26T01:10:51.381Z,100771.53
2022-12-26T01:13:18.998Z,100778.06
2022-12-26T01:15:50.785Z,100774.97
2022-12-26T01:18:18.445Z,100776.91
2022-12-26T01:20:45.276Z,100780.97
2022-12-26T01:23:12.946Z,100760.25
2022-12-26T01:26:18.689Z,100765.53
2022-12-26T01:28:27.626Z,100759.00
2022-12-26T01:30:54.982Z,100764.63
2022-12-26T01:33:22.116Z,100762.38
2022-12-26T01:35:52.345Z,100765.28
2022-12-26T01:38:20.029Z,100770.72
2022-12-26T01:40:47.422Z,100793.84
2022-12-26T01:43:16.477Z,100792.47
2022-12-26T01:45:51.071Z,100783.34
2022-12-26T01:48:21.818Z,100784.22
2022-12-26T01:50:56.031Z,100787.88
2022-12-26T01:53:25.745Z,100777.03
2022-12-26T01:56:02.457Z,100784.16
2022-12-26T01:58:33.259Z,100782.69
2022-12-26T02:01:02.215Z,100787.91
2022-12-26T02:03:47.829Z,100790.16
2022-12-26T02:06:15.713Z,100797.91
2022-12-26T02:08:44.540Z,100810.78
2022-12-26T02:11:32.856Z,100793.47
2022-12-26T02:14:00.822Z,100792.88
2022-12-26T02:16:28.090Z,100804.47
2022-12-26T02:18:54.987Z,100796.78
2022-12-26T02:21:40.558Z,100800.28
2022-12-26T02:24:07.410Z,100803.81
2022-12-26T02:26:56.717Z,100806.53
2022-12-26T02:29:26.613Z,100817.84
2022-12-26T02:32:06.124Z,100814.56
2022-12-26T02:35:07.427Z,100808.56
2022-12-26T02:37:56.265Z,100817.81
2022-12-26T02:40:26.239Z,100809.66
2022-12-26T02:43:16.280Z,100811.94
2022-12-26T02:46:23.690Z,100811.16
2022-12-26T02:49:16.851Z,100810.69
2022-12-26T02:52:15.118Z,100806.53
2022-12-26T02:55:13.309Z,100810.00
2022-12-26T02:58:12.852Z,100819.28
2022-12-26T03:00:59.676Z,100818.84
2022-12-26T03:03:48.680Z,100819.66
2022-12-26T03:06:39.758Z,100813.03
2022-12-26T03:09:37.461Z,100808.41
2022-12-26T03:12:40.312Z,100811.38
2022-12-26T03:15:11.106Z,100807.00
2022-12-26T03:17:44.164Z,100797.91
2022-12-26T03:20:15.286Z,100793.47
2022-12-26T03:22:51.069Z,100795.13
2022-12-26T03:25:56.198Z,100795.97
2022-12-26T03:28:23.594Z,100806.72
2022-12-26T03:30:51.024Z,100797.00
2022-12-26T03:33:53.397Z,100795.66
2022-12-26T03:36:51.256Z,100791.16
2022-12-26T03:39:21.521Z,100793.63
2022-12-26T03:42:21.602Z,100807.50
2022-12-26T03:45:14.379Z,100803.16
2022-12-26T03:48:08.431Z,100801.59
2022-12-26T03:51:01.925Z,100795.22
2022-12-26T03:53:59.665Z,100794.13
2022-12-26T03:56:52.960Z,100781.22
2022-12-26T03:59:45.613Z,100788.31
2022-12-26T04:02:31.481Z,100785.44
2022-12-26T04:05:17.983Z,100791.38
2022-12-26T04:08:11.165Z,100785.66
2022-12-26T04:11:05.881Z,100790.81
2022-12-26T04:14:04.797Z,100791.69
2022-12-26T04:16:58.396Z,100793.81
2022-12-26T04:19:29.152Z,100803.00
2022-12-26T04:22:47.233Z,100816.44
2022-12-26T04:25:49.467Z,100805.09
2022-12-26T04:28:37.797Z,100810.13
2022-12-26T04:31:32.742Z,100804.06
2022-12-26T04:34:21.169Z,100806.78
2022-12-26T04:37:15.195Z,100814.66
2022-12-26T04:40:04.150Z,100833.97
2022-12-26T04:42:50.363Z,100823.44
2022-12-26T04:45:18.080Z,100817.91
2022-12-26T04:48:05.252Z,100820.38
2022-12-26T04:50:32.746Z,100810.88
2022-12-26T04:53:01.306Z,100807.19
2022-12-26T04:55:36.248Z,100812.31
2022-12-26T04:58:03.315Z,100808.16
2022-12-26T05:00:30.254Z,100801.75
2022-12-26T05:03:19.241Z,100801.63
2022-12-26T05:06:07.755Z,100805.25
2022-12-26T05:08:58.876Z,100798.56
2022-12-26T05:11:26.592Z,100785.78
2022-12-26T05:13:54.633Z,100769.03
2022-12-26T05:16:41.025Z,100767.81
2022-12-26T05:19:31.546Z,100777.19
2022-12-26T05:22:18.203Z,100776.25
2022-12-26T05:25:04.742Z,100790.00
2022-12-26T05:27:59.956Z,100787.97
2022-12-26T05:30:27.015Z,100791.19
2022-12-26T05:33:12.642Z,100808.56
2022-12-26T05:35:40.459Z,100809.22
2022-12-26T05:38:10.259Z,100823.00
2022-12-26T05:40:37.181Z,100820.69
2022-12-26T05:43:04.584Z,100816.38
2022-12-26T05:45:32.942Z,100845.16
2022-12-26T05:48:01.126Z,100842.47
2022-12-26T05:50:28.853Z,100836.88
2022-12-26T05:52:59.191Z,100829.06
2022-12-26T05:55:26.245Z,100845.97
2022-12-26T05:57:53.240Z,100847.28
2022-12-26T06:00:20.633Z,100844.78
2022-12-26T06:02:54.027Z,100840.81
2022-12-26T06:05:21.945Z,100841.50
2022-12-26T06:07:52.038Z,100843.00
2022-12-26T06:10:18.886Z,100827.41
2022-12-26T06:12:46.449Z,100840.06
2022-12-26T06:15:13.463Z,100842.22
2022-12-26T06:17:40.377Z,100849.59
2022-12-26T06:20:08.003Z,100840.66
2022-12-26T06:22:34.713Z,100835.81
2022-12-26T06:25:01.509Z,100827.63
2022-12-26T06:27:28.729Z,100838.09
2022-12-26T06:29:55.611Z,100859.22
2022-12-26T06:32:22.964Z,100853.75
2022-12-26T06:34:49.826Z,100861.28
2022-12-26T06:37:17.097Z,100887.03
2022-12-26T06:39:43.986Z,100880.94
2022-12-26T06:42:10.894Z,100881.22
2022-12-26T06:44:38.143Z,100885.38
2022-12-26T06:47:05.083Z,100873.56
2022-12-26T06:49:33.190Z,100875.53
2022-12-26T06:52:00.385Z,100885.09
2022-12-26T06:54:27.241Z,100898.16
2022-12-26T06:56:54.189Z,100896.56
2022-12-26T06:59:21.062Z,100895.78
2022-12-26T07:01:48.302Z,100901.81
2022-12-26T07:04:15.280Z,100888.56
2022-12-26T07:06:42.160Z,100897.00
2022-12-26T07:09:13.085Z,100893.50
2022-12-26T07:11:42.303Z,100880.44
2022-12-26T07:14:09.247Z,100883.97
2022-12-26T07:16:37.617Z,100897.38
2022-12-26T07:19:04.781Z,100891.06
2022-12-26T07:21:37.969Z,100896.06
2022-12-26T07:24:09.007Z,100895.47
2022-12-26T07:26:36.016Z,100905.75
2022-12-26T07:29:02.826Z,100895.56
2022-12-26T07:31:29.653Z,100901.19
2022-12-26T07:33:57.177Z,100908.69
2022-12-26T07:36:25.243Z,100917.28
2022-12-26T07:38:52.543Z,100904.38
2022-12-26T07:42:00.824Z,100905.53
2022-12-26T07:44:29.306Z,100915.91
2022-12-26T07:46:56.823Z,100902.97
2022-12-26T07:49:23.763Z,100906.31
2022-12-26T07:51:50.942Z,100911.56
2022-12-26T07:54:18.523Z,100925.09
2022-12-26T07:56:45.673Z,100923.53
2022-12-26T07:59:18.770Z,100918.84
2022-12-26T08:01:46.048Z,100916.81
2022-12-26T08:04:13.889Z,100925.00
2022-12-26T08:06:41.237Z,100921.75
2022-12-26T08:09:08.102Z,100906.56
2022-12-26T08:11:35.278Z,100894.31
2022-12-26T08:14:02.327Z,100913.16
2022-12-26T08:16:30.971Z,100916.28
2022-12-26T08:18:57.958Z,100921.00
2022-12-26T08:21:24.747Z,100926.25
2022-12-26T08:23:51.540Z,100930.16
2022-12-26T08:26:22.645Z,100930.22
2022-12-26T08:28:50.941Z,100923.72
2022-12-26T08:31:18.664Z,100942.31
2022-12-26T08:33:45.805Z,100948.34
2022-12-26T08:36:13.320Z,100955.66
2022-12-26T08:38:40.805Z,100958.94
2022-12-26T08:41:07.743Z,100955.06
2022-12-26T08:44:03.537Z,100950.34
2022-12-26T08:46:22.463Z,100951.69
2022-12-26T08:48:50.153Z,100948.13
2022-12-26T08:51:19.527Z,100956.75
2022-12-26T08:53:46.855Z,100965.34
2022-12-26T08:56:16.654Z,100957.34
2022-12-26T08:58:44.287Z,100962.59
2022-12-26T09:01:12.266Z,100962.94
2022-12-26T09:03:40.139Z,100970.00
2022-12-26T09:06:07.539Z,100981.06
2022-12-26T09:08:35.781Z,100986.00
2022-12-26T09:11:04.977Z,100986.31
2022-12-26T09:13:32.893Z,100989.56
2022-12-26T09:16:08.044Z,100985.13
2022-12-26T09:18:35.383Z,100999.50
2022-12-26T09:21:03.310Z,100999.09
2022-12-26T09:23:36.511Z,101006.97
2022-12-26T09:26:07.131Z,101011.59
2022-12-26T09:28:35.676Z,101019.31
2022-12-26T09:31:07.609Z,101029.16
2022-12-26T09:33:37.830Z,101028.97
2022-12-26T09:36:14.586Z,101031.19
2022-12-26T09:38:43.963Z,101024.50
2022-12-26T09:41:30.930Z,101027.34
2022-12-26T09:44:20.198Z,101039.91
2022-12-26T09:47:45.135Z,101048.59
2022-12-26T09:50:12.208Z,101047.78
2022-12-26T09:52:41.203Z,101053.88
2022-12-26T09:55:37.278Z,101058.81
2022-12-26T09:58:29.915Z,101060.13
2022-12-26T10:01:17.660Z,101057.09
2022-12-26T10:03:48.471Z,101068.06
2022-12-26T10:06:21.208Z,101069.53
2022-12-26T10:08:50.744Z,101071.28
2022-12-26T10:11:42.200Z,101073.72
2022-12-26T10:14:41.343Z,101080.09
2022-12-26T10:17:29.612Z,101068.75
2022-12-26T10:20:52.983Z,101076.91
2022-12-26T10:23:32.653Z,101081.69
2022-12-26T10:26:21.690Z,101070.25
2022-12-26T10:29:09.820Z,101076.56
2022-12-26T10:31:42.901Z,101065.72
2022-12-26T10:34:20.544Z,101066.50
2022-12-26T10:36:50.547Z,101062.66
2022-12-26T10:39:22.710Z,101069.41
2022-12-26T10:41:53.672Z,101095.09
2022-12-26T10:44:25.702Z,101093.53
2022-12-26T10:46:57.558Z,101103.59
2022-12-26T10:49:25.886Z,101087.25
2022-12-26T10:51:55.617Z,101082.31
2022-12-26T10:54:23.371Z,101088.47
2022-12-26T10:56:52.143Z,101088.44
2022-12-26T10:59:22.605Z,101092.03
2022-12-26T11:01:50.136Z,101094.97
2022-12-26T11:05:02.122Z,101089.59
2022-12-26T11:07:12.355Z,101098.56
2022-12-26T11:09:51.422Z,101096.38
2022-12-26T11:12:57.326Z,101108.25
2022-12-26T11:15:32.953Z,101107.88
2022-12-26T11:18:32.485Z,101111.44
2022-12-26T11:21:18.071Z,101112.63
2022-12-26T11:23:49.850Z,101111.38
2022-12-26T11:26:23.708Z,101110.47
2022-12-26T11:29:11.886Z,101126.13
2022-12-26T11:31:40.827Z,101133.00
2022-12-26T11:34:15.851Z,101143.50
2022-12-26T11:36:47.366Z,101154.94
2022-12-26T11:39:25.068Z,101166.22
2022-12-26T11:41:53.796Z,101160.75
2022-12-26T11:44:30.362Z,101173.00
2022-12-26T11:47:10.151Z,101185.78
2022-12-26T11:50:02.250Z,101185.88
2022-12-26T11:52:35.099Z,101180.34
2022-12-26T11:55:02.258Z,101175.19
2022-12-26T11:57:31.653Z,101178.22
2022-12-26T12:00:22.170Z,101184.78
2022-12-26T12:02:49.250Z,101174.53
2022-12-26T12:05:34.358Z,101197.56
2022-12-26T12:08:28.132Z,101193.25
2022-12-26T12:11:16.314Z,101218.19
2022-12-26T12:13:46.109Z,101214.00
2022-12-26T12:16:39.127Z,101219.41
2022-12-26T12:19:14.280Z,101196.66
2022-12-26T12:22:07.447Z,101205.00
2022-12-26T12:24:39.459Z,101219.38
2022-12-26T12:27:27.172Z,101216.28
2022-12-26T12:30:20.195Z,101206.63
2022-12-26T12:32:57.343Z,101209.13
2022-12-26T12:35:42.273Z,101223.16
2022-12-26T12:38:48.322Z,101241.75
2022-12-26T12:41:36.670Z,101233.50
2022-12-26T12:44:15.206Z,101237.84
2022-12-26T12:46:41.955Z,101247.94
2022-12-26T12:49:34.827Z,101240.63
2022-12-26T12:52:27.203Z,101242.75
2022-12-26T12:55:24.809Z,101222.53
2022-12-26T12:57:52.165Z,101245.84
2022-12-26T13:00:25.277Z,101239.56
2022-12-26T13:03:10.401Z,101240.72
2022-12-26T13:06:01.204Z,101232.69
2022-12-26T13:08:35.130Z,101242.47
2022-12-26T13:11:15.689Z,101231.97
2022-12-26T13:13:59.502Z,101240.75
2022-12-26T13:16:30.576Z,101242.63
2022-12-26T13:19:04.541Z,101252.16
2022-12-26T13:21:35.384Z,101249.44
2022-12-26T13:24:24.158Z,101246.25
2022-12-26T13:27:15.746Z,101246.06
2022-12-26T13:29:44.620Z,101236.69
2022-12-26T13:32:16.978Z,101246.34
2022-12-26T13:34:45.594Z,101239.38
2022-12-26T13:37:39.171Z,101252.94
2022-12-26T13:40:20.037Z,101244.38
2022-12-26T13:43:28.554Z,101270.81
2022-12-26T13:45:58.130Z,101271.44
2022-12-26T13:48:30.419Z,101278.81
2022-12-26T13:51:02.620Z,101284.84
2022-12-26T13:53:37.218Z,101296.72
2022-12-26T13:56:19.232Z,101301.25
2022-12-26T13:59:11.854Z,101299.81
2022-12-26T14:02:19.399Z,101309.47
2022-12-26T14:05:10.292Z,101315.06
2022-12-26T14:07:49.497Z,101314.50
2022-12-26T14:10:31.652Z,101323.56
2022-12-26T14:13:07.090Z,101337.47
2022-12-26T14:15:49.107Z,101345.22
2022-12-26T14:18:26.073Z,101348.94
2022-12-26T14:21:13.017Z,101335.06
2022-12-26T14:23:47.393Z,101337.25
2022-12-26T14:26:32.462Z,101345.16
2022-12-26T14:29:10.192Z,101355.41
2022-12-26T14:31:56.388Z,101356.03
2022-12-26T14:34:51.345Z,101363.47
2022-12-26T14:37:21.172Z,101370.69
2022-12-26T14:40:04.135Z,101377.81
2022-12-26T14:42:50.471Z,101395.34
2022-12-26T14:45:30.981Z,101412.47
2022-12-26T14:47:57.980Z,101417.25
2022-12-26T14:50:37.178Z,101426.59
2022-12-26T14:53:27.585Z,101425.31
2022-12-26T14:56:14.150Z,101424.03
2022-12-26T14:58:43.823Z,101428.63
2022-12-26T15:01:13.655Z,101424.88
2022-12-26T15:03:58.799Z,101433.25
2022-12-26T15:06:38.382Z,101441.09
2022-12-26T15:09:37.089Z,101449.38
2022-12-26T15:12:26.685Z,101463.03
2022-12-26T15:15:30.835Z,101470.13
2022-12-26T15:18:41.037Z,101485.28
2022-12-26T15:21:55.429Z,101482.22
2022-12-26T15:25:20.678Z,101488.78
2022-12-26T15:28:21.339Z,101490.38
2022-12-26T15:31:02.453Z,101498.22
2022-12-26T15:33:43.729Z,101503.50
2022-12-26T15:36:37.260Z,101503.59
2022-12-26T15:39:42.383Z,101519.25
2022-12-26T15:42:11.961Z,101518.22
2022-12-26T15:45:10.627Z,101526.19
2022-12-26T15:47:43.201Z,101531.31
2022-12-26T15:50:29.472Z,101531.59
2022-12-26T15:53:33.991Z,101546.09
2022-12-26T15:56:12.581Z,101544.81
2022-12-26T15:58:54.349Z,101548.63
2022-12-26T16:01:37.900Z,101551.66
2022-12-26T16:04:10.711Z,101547.53
2022-12-26T16:06:56.369Z,101565.16
2022-12-26T16:09:46.045Z,101578.28
2022-12-26T16:12:26.705Z,101574.38
2022-12-26T16:15:01.485Z,101579.50
2022-12-26T16:17:28.972Z,101580.81
2022-12-26T16:19:55.942Z,101587.25
2022-12-26T16:22:43.978Z,101583.41
2022-12-26T16:25:17.291Z,101578.56
2022-12-26T16:27:45.456Z,101585.63
2022-12-26T16:30:17.067Z,101582.13
2022-12-26T16:32:47.345Z,101584.47
2022-12-26T16:35:22.232Z,101585.31
2022-12-26T16:37:50.613Z,101586.50
2022-12-26T16:40:23.236Z,101598.91
2022-12-26T16:42:59.573Z,101591.63
2022-12-26T16:45:27.913Z,101603.66
2022-12-26T16:47:55.321Z,101588.66
2022-12-26T16:50:26.975Z,101594.28
2022-12-26T16:53:04.563Z,101602.63
2022-12-26T16:55:31.366Z,101600.41
2022-12-26T16:57:59.879Z,101596.59
2022-12-26T17:00:34.670Z,101599.19
2022-12-26T17:03:03.720Z,101600.69
2022-12-26T17:05:40.884Z,101600.38
2022-12-26T17:08:07.653Z,101603.72
2022-12-26T17:10:36.713Z,101608.06
2022-12-26T17:13:06.705Z,101610.00
2022-12-26T17:15:36.677Z,101603.78
2022-12-26T17:18:37.169Z,101603.88
2022-12-26T17:21:30.476Z,101605.72
2022-12-26T17:24:09.500Z,101597.63
2022-12-26T17:26:38.209Z,101603.53
2022-12-26T17:29:05.485Z,101619.16
2022-12-26T17:31:43.783Z,101625.06
2022-12-26T17:34:18.391Z,101622.09
2022-12-26T17:37:17.748Z,101633.97
2022-12-26T17:39:32.019Z,101625.91
2022-12-26T17:42:00.805Z,101627.81
2022-12-26T17:44:37.252Z,101646.63
2022-12-26T17:47:25.459Z,101648.25
2022-12-26T17:49:53.833Z,101646.09
2022-12-26T17:52:25.532Z,101644.72
2022-12-26T17:54:52.647Z,101657.38
2022-12-26T17:57:23.342Z,101659.06
2022-12-26T17:59:53.977Z,101656.34
2022-12-26T18:02:21.222Z,101677.06
2022-12-26T18:05:00.498Z,101667.13
2022-12-26T18:07:31.402Z,101683.81
2022-12-26T18:10:00.253Z,101683.81
2022-12-26T18:12:27.217Z,101688.41
2022-12-26T18:15:01.152Z,101695.38
2022-12-26T18:17:29.314Z,101693.25
2022-12-26T18:19:57.711Z,101699.13
2022-12-26T18:22:24.575Z,101691.59
2022-12-26T18:24:51.402Z,101709.13
2022-12-26T18:27:21.592Z,101704.25
2022-12-26T18:29:49.648Z,101704.03
2022-12-26T18:32:26.016Z,101712.38
2022-12-26T18:34:52.943Z,101718.59
2022-12-26T18:37:21.156Z,101717.25
2022-12-26T18:39:48.262Z,101723.44
2022-12-26T18:42:16.109Z,101733.66
2022-12-26T18:44:43.520Z,101734.75
2022-12-26T18:47:14.809Z,101735.78
2022-12-26T18:49:43.486Z,101740.94
2022-12-26T18:52:10.939Z,101749.84
2022-12-26T18:54:44.394Z,101749.31
2022-12-26T18:57:17.138Z,101745.13
2022-12-26T18:59:46.255Z,101741.41
2022-12-26T19:02:18.130Z,101745.53
2022-12-26T19:04:48.441Z,101747.13
2022-12-26T19:07:17.383Z,101747.66
2022-12-26T19:09:45.518Z,101746.59
2022-12-26T19:12:12.345Z,101749.13
2022-12-26T19:14:38.953Z,101754.53
2022-12-26T19:17:06.048Z,101755.97
2022-12-26T19:19:32.820Z,101768.03
2022-12-26T19:21:59.656Z,101764.47
2022-12-26T19:24:26.524Z,101761.56
2022-12-26T19:26:53.288Z,101769.09
2022-12-26T19:29:20.004Z,101768.84
2022-12-26T19:31:46.756Z,101774.69
2022-12-26T19:34:13.669Z,101765.94
2022-12-26T19:36:40.428Z,101767.34
2022-12-26T19:39:07.119Z,101774.22
2022-12-26T19:41:34.021Z,101769.28
2022-12-26T19:44:01.256Z,101777.94
2022-12-26T19:46:28.488Z,101784.25
2022-12-26T19:48:55.516Z,101774.97
2022-12-26T19:51:22.797Z,101782.53
2022-12-26T19:53:49.795Z,101792.72
2022-12-26T19:56:18.387Z,101797.38
2022-12-26T19:58:45.999Z,101797.94
2022-12-26T20:01:18.306Z,101804.00
2022-12-26T20:03:45.685Z,101800.63
2022-12-26T20:06:15.584Z,101807.72
2022-12-26T20:08:43.115Z,101808.06
2022-12-26T20:11:16.245Z,101806.72
2022-12-26T20:13:44.049Z,101800.66
2022-12-26T20:16:45.645Z,101797.88
2022-12-26T20:19:04.588Z,101797.13
2022-12-26T20:21:31.549Z,101796.97
2022-12-26T20:24:02.123Z,101801.56
2022-12-26T20:26:29.564Z,101801.53
2022-12-26T20:28:58.862Z,101812.25
2022-12-26T20:31:25.655Z,101817.44
2022-12-26T20:33:52.973Z,101809.63
2022-12-26T20:36:28.961Z,101809.16
2022-12-26T20:38:58.399Z,101814.84
2022-12-26T20:41:26.609Z,101817.13
2022-12-26T20:43:53.871Z,101825.41
2022-12-26T20:46:23.838Z,101820.00
2022-12-26T20:48:50.841Z,101824.09
2022-12-26T20:51:24.969Z,101833.00
2022-12-26T20:53:54.752Z,101822.56
2022-12-26T20:56:21.440Z,101824.16
2022-12-26T20:58:48.326Z,101826.94
2022-12-26T21:01:22.055Z,101824.03
2022-12-26T21:03:52.099Z,101828.47
2022-12-26T21:06:21.474Z,101820.44
2022-12-26T21:08:50.749Z,101838.34
2022-12-26T21:11:20.561Z,101837.47
2022-12-26T21:13:48.439Z,101839.41
2022-12-26T21:16:22.177Z,101846.16
2022-12-26T21:18:49.667Z,101848.72
2022-12-26T21:21:22.449Z,101850.69
2022-12-26T21:23:49.875Z,101859.75
2022-12-26T21:26:16.556Z,101859.25
2022-12-26T21:28:43.454Z,101867.13
2022-12-26T21:31:15.418Z,101879.22
2022-12-26T21:33:44.898Z,101877.03
2022-12-26T21:36:13.056Z,101884.91
2022-12-26T21:38:40.600Z,101884.84
2022-12-26T21:41:11.880Z,101879.81
2022-12-26T21:43:44.271Z,101891.28
2022-12-26T21:46:16.498Z,101897.72
2022-12-26T21:48:47.457Z,101901.06
2022-12-26T21:51:15.905Z,101905.31
2022-12-26T21:53:44.060Z,101904.25
2022-12-26T21:56:36.547Z,101913.13
2022-12-26T21:59:22.095Z,101907.22
2022-12-26T22:01:49.304Z,101922.94
2022-12-26T22:04:18.901Z,101925.63
2022-12-26T22:06:46.357Z,101913.09
2022-12-26T22:09:14.927Z,101916.75
2022-12-26T22:12:00.327Z,101921.47
2022-12-26T22:14:30.315Z,101928.53
2022-12-26T22:16:58.498Z,101940.13
2022-12-26T22:19:26.454Z,101936.81
2022-12-26T22:21:54.646Z,101933.41
2022-12-26T22:24:26.812Z,101944.56
2022-12-26T22:26:53.694Z,101932.78
2022-12-26T22:29:21.124Z,101940.72
2022-12-26T22:31:48.107Z,101942.50
2022-12-26T22:34:16.589Z,101945.75
2022-12-26T22:36:44.126Z,101946.25
2022-12-26T22:39:17.112Z,101948.56
2022-12-26T22:41:47.590Z,101946.19
2022-12-26T22:44:15.062Z,101944.41
2022-12-26T22:46:45.213Z,101947.59
2022-12-26T22:49:12.287Z,101957.69
2022-12-26T22:51:39.476Z,101957.53
2022-12-26T22:54:06.665Z,101951.91
2022-12-26T22:56:33.999Z,101957.75
2022-12-26T22:59:03.475Z,101964.06
2022-12-26T23:01:35.449Z,101959.22
2022-12-26T23:04:02.908Z,101959.34
2022-12-26T23:06:36.629Z,101961.81
2022-12-26T23:09:06.055Z,101957.53
2022-12-26T23:11:35.589Z,101958.75
2022-12-26T23:14:05.141Z,101976.81
2022-12-26T23:16:51.230Z,101970.47
2022-12-26T23:20:00.744Z,101977.59
2022-12-26T23:22:27.986Z,101977.88
2022-12-26T23:24:54.717Z,101978.88
2022-12-26T23:27:39.900Z,101991.47
2022-12-26T23:30:19.107Z,102000.09
2022-12-26T23:32:51.188Z,101995.28
2022-12-26T23:35:19.121Z,102000.09
2022-12-26T23:37:46.037Z,101984.06
2022-12-26T23:40:14.575Z,101986.97
2022-12-26T23:42:41.503Z,101985.94
2022-12-26T23:45:09.829Z,101985.91
2022-12-26T23:47:37.804Z,101979.50
2022-12-26T23:50:05.638Z,101979.75
2022-12-26T23:52:32.837Z,101985.09
2022-12-26T23:54:59.502Z,101986.38
2022-12-26T23:57:26.495Z,101981.66
2022-12-26T23:59:53.430Z,101984.50
